Time;durP1;ratioP1;P1;durP2;ratioP2;P2;SDS_P1;SDS_P2;PMS_P1;PMS_P2;Temp;Humidity;BMP_temperature;BMP_pressure;BME280_temperature;BME280_humidity;BME280_pressure;Samples;Min_cycle;Max_cycle;Signal;HPM_P1;HPM_P2
2023/07/23 00:01:11;;;;;;;8.30;3.72;;;;;;;;;;5065832;28;20047;-66
2023/07/23 00:03:38;;;;;;;8.60;4.10;;;;;;;;;;5064209;28;20151;-65
2023/07/23 00:06:05;;;;;;;7.90;4.20;;;;;;;;;;5067085;28;20066;-68
2023/07/23 00:08:33;;;;;;;7.78;3.60;;;;;;;;;;5048698;28;20049;-66
2023/07/23 00:11:00;;;;;;;7.00;4.03;;;;;;;;;;5063574;28;20056;-65
2023/07/23 00:13:26;;;;;;;8.73;4.25;;;;;;;;;;5037720;28;20036;-66
2023/07/23 00:15:53;;;;;;;7.63;3.67;;;;;;;;;;5066880;28;20083;-65
2023/07/23 00:18:20;;;;;;;8.70;3.72;;;;;;;;;;5064264;28;20499;-65
2023/07/23 00:20:48;;;;;;;8.52;3.70;;;;;;;;;;5066069;28;20116;-64
2023/07/23 00:23:14;;;;;;;5.75;3.75;;;;;;;;;;5063730;28;20040;-65
2023/07/23 00:25:42;;;;;;;8.63;3.85;;;;;;;;;;5061838;28;20247;-66
2023/07/23 00:28:08;;;;;;;7.45;4.00;;;;;;;;;;5061970;28;20727;-64
2023/07/23 00:30:35;;;;;;;11.77;3.88;;;;;;;;;;5064042;28;20041;-64
2023/07/23 00:33:02;;;;;;;6.25;3.67;;;;;;;;;;5059951;28;20126;-65
2023/07/23 00:35:28;;;;;;;7.90;3.83;;;;;;;;;;5061210;28;20047;-64
2023/07/23 00:37:55;;;;;;;6.45;3.45;;;;;;;;;;5063537;28;20029;-64
2023/07/23 00:40:21;;;;;;;6.35;3.75;;;;;;;;;;5059700;28;20040;-64
2023/07/23 00:42:48;;;;;;;7.03;3.35;;;;;;;;;;5060561;28;20036;-64
2023/07/23 00:45:15;;;;;;;7.32;3.88;;;;;;;;;;5064320;28;20036;-66
2023/07/23 00:47:43;;;;;;;8.23;3.53;;;;;;;;;;5061133;28;20494;-65
2023/07/23 00:50:10;;;;;;;7.25;3.83;;;;;;;;;;5060795;28;20448;-64
2023/07/23 00:52:36;;;;;;;9.07;3.80;;;;;;;;;;5060693;28;20040;-64
2023/07/23 00:55:03;;;;;;;5.82;3.20;;;;;;;;;;5059084;28;20910;-64
2023/07/23 00:57:30;;;;;;;5.82;3.15;;;;;;;;;;5040092;28;20036;-63
2023/07/23 00:59:56;;;;;;;5.60;3.38;;;;;;;;;;5060722;28;20045;-64
2023/07/23 01:02:25;;;;;;;8.23;3.95;;;;;;;;;;5060645;28;20036;-64
2023/07/23 01:04:52;;;;;;;5.88;3.78;;;;;;;;;;5061749;28;20056;-64
2023/07/23 01:07:19;;;;;;;6.65;3.83;;;;;;;;;;5062051;28;20037;-63
2023/07/23 01:09:46;;;;;;;6.25;3.38;;;;;;;;;;5059866;28;20032;-62
2023/07/23 01:12:14;;;;;;;7.63;3.90;;;;;;;;;;5062574;28;20047;-64
2023/07/23 01:14:41;;;;;;;9.25;4.38;;;;;;;;;;5060811;28;20109;-63
2023/07/23 01:17:08;;;;;;;5.63;3.40;;;;;;;;;;5062520;28;20032;-64
2023/07/23 01:19:37;;;;;;;7.30;3.97;;;;;;;;;;5059449;28;20619;-63
2023/07/23 01:22:07;;;;;;;9.75;4.47;;;;;;;;;;5061835;28;20047;-65
2023/07/23 01:24:35;;;;;;;7.68;4.25;;;;;;;;;;5061200;28;20040;-63
2023/07/23 01:27:02;;;;;;;9.52;3.92;;;;;;;;;;5035825;28;21548;-63
2023/07/23 01:29:29;;;;;;;8.52;4.53;;;;;;;;;;5059449;28;20040;-63
2023/07/23 01:31:56;;;;;;;11.25;4.10;;;;;;;;;;5034587;28;20040;-62
2023/07/23 01:34:24;;;;;;;9.27;4.20;;;;;;;;;;5058063;28;20044;-64
2023/07/23 01:36:50;;;;;;;7.22;4.00;;;;;;;;;;5062066;28;20059;-64
2023/07/23 01:39:17;;;;;;;9.82;4.43;;;;;;;;;;5058106;28;20186;-64
2023/07/23 01:41:44;;;;;;;7.15;4.00;;;;;;;;;;5061372;28;20044;-64
2023/07/23 01:44:11;;;;;;;7.13;4.07;;;;;;;;;;5059269;28;20048;-64
2023/07/23 01:46:38;;;;;;;7.93;4.10;;;;;;;;;;5037368;28;20067;-66
2023/07/23 01:49:04;;;;;;;7.75;4.30;;;;;;;;;;5062039;28;20141;-63
2023/07/23 01:51:31;;;;;;;8.98;4.50;;;;;;;;;;5060114;28;20045;-64
2023/07/23 01:53:58;;;;;;;9.38;4.57;;;;;;;;;;5061213;28;20041;-63
2023/07/23 01:56:25;;;;;;;9.80;4.25;;;;;;;;;;5049522;28;20151;-63
2023/07/23 01:58:51;;;;;;;9.80;4.43;;;;;;;;;;5061930;28;20044;-64
2023/07/23 02:01:18;;;;;;;8.63;4.57;;;;;;;;;;5071766;28;20131;-63
2023/07/23 02:03:45;;;;;;;9.25;4.60;;;;;;;;;;5044631;28;20169;-65
2023/07/23 02:06:11;;;;;;;9.30;4.28;;;;;;;;;;5058307;28;20040;-64
2023/07/23 02:08:38;;;;;;;7.82;4.65;;;;;;;;;;5075021;28;20045;-64
2023/07/23 02:11:06;;;;;;;8.25;4.70;;;;;;;;;;5076197;28;20072;-64
2023/07/23 02:13:32;;;;;;;8.68;4.50;;;;;;;;;;5075150;28;20035;-65
2023/07/23 02:15:59;;;;;;;8.48;4.72;;;;;;;;;;5069895;28;20040;-64
2023/07/23 02:18:25;;;;;;;10.00;5.15;;;;;;;;;;5060386;28;20055;-64
2023/07/23 02:20:52;;;;;;;8.60;4.82;;;;;;;;;;5062786;28;20047;-65
2023/07/23 02:23:19;;;;;;;11.05;4.97;;;;;;;;;;5062051;28;20047;-65
2023/07/23 02:25:48;;;;;;;14.18;4.80;;;;;;;;;;5060477;28;20044;-64
2023/07/23 02:28:14;;;;;;;11.57;5.15;;;;;;;;;;5058963;28;20151;-64
2023/07/23 02:30:41;;;;;;;9.45;5.07;;;;;;;;;;5034926;28;20044;-64
2023/07/23 02:33:08;;;;;;;12.80;5.25;;;;;;;;;;5061347;28;20127;-63
2023/07/23 02:35:37;;;;;;;12.95;5.47;;;;;;;;;;5059387;28;20587;-64
2023/07/23 02:38:04;;;;;;;8.60;4.90;;;;;;;;;;5060490;28;20039;-64
2023/07/23 02:40:32;;;;;;;11.70;4.68;;;;;;;;;;5034598;28;20417;-64
2023/07/23 02:42:59;;;;;;;16.13;5.40;;;;;;;;;;5060450;28;20147;-63
2023/07/23 02:45:26;;;;;;;10.63;5.40;;;;;;;;;;5033775;28;20154;-65
2023/07/23 02:47:52;;;;;;;18.58;5.72;;;;;;;;;;5060751;28;20127;-63
2023/07/23 02:50:19;;;;;;;11.32;5.28;;;;;;;;;;5061253;28;20091;-64
2023/07/23 02:52:46;;;;;;;9.32;4.82;;;;;;;;;;5060251;28;20032;-64
2023/07/23 02:55:12;;;;;;;9.80;5.25;;;;;;;;;;5060395;28;20397;-64
2023/07/23 02:57:39;;;;;;;15.80;4.82;;;;;;;;;;5057600;28;20075;-69
2023/07/23 03:00:06;;;;;;;8.57;4.72;;;;;;;;;;5059061;28;20049;-65
2023/07/23 03:02:33;;;;;;;13.68;5.35;;;;;;;;;;5047894;28;20381;-62
2023/07/23 03:04:59;;;;;;;10.93;4.75;;;;;;;;;;5057284;28;20044;-63
2023/07/23 03:07:26;;;;;;;9.27;5.10;;;;;;;;;;5060786;28;20041;-66
2023/07/23 03:09:53;;;;;;;14.93;5.55;;;;;;;;;;5062801;28;20040;-66
2023/07/23 03:12:19;;;;;;;9.75;5.53;;;;;;;;;;5060539;28;20047;-63
2023/07/23 03:14:46;;;;;;;13.23;4.70;;;;;;;;;;5046424;28;20541;-64
2023/07/23 03:17:12;;;;;;;9.95;4.75;;;;;;;;;;5066444;28;20150;-63
2023/07/23 03:19:39;;;;;;;9.82;4.65;;;;;;;;;;5067156;28;20045;-64
2023/07/23 03:22:06;;;;;;;10.90;4.95;;;;;;;;;;5068910;28;20206;-67
2023/07/23 03:24:32;;;;;;;9.63;5.40;;;;;;;;;;5062842;28;20040;-64
2023/07/23 03:26:59;;;;;;;13.13;5.50;;;;;;;;;;5062195;28;20041;-67
2023/07/23 03:29:25;;;;;;;9.63;5.85;;;;;;;;;;5063155;28;20040;-68
2023/07/23 03:31:52;;;;;;;11.60;5.80;;;;;;;;;;5064681;28;20046;-68
2023/07/23 03:34:19;;;;;;;12.02;5.78;;;;;;;;;;5061733;28;20036;-66
2023/07/23 03:36:45;;;;;;;14.57;6.78;;;;;;;;;;5065917;28;20037;-66
2023/07/23 03:39:16;;;;;;;11.45;5.35;;;;;;;;;;5062400;28;20047;-67
2023/07/23 03:41:46;;;;;;;11.85;6.03;;;;;;;;;;5047524;28;20528;-65
2023/07/23 03:44:13;;;;;;;9.93;5.72;;;;;;;;;;5062355;28;20032;-67
2023/07/23 03:46:43;;;;;;;9.45;5.78;;;;;;;;;;5042994;28;20057;-67
2023/07/23 03:49:10;;;;;;;9.60;5.10;;;;;;;;;;5074868;28;20037;-66
2023/07/23 03:51:37;;;;;;;13.20;6.63;;;;;;;;;;5071225;28;20041;-67
2023/07/23 03:54:04;;;;;;;14.90;7.43;;;;;;;;;;5068785;28;20071;-67
2023/07/23 03:56:30;;;;;;;14.73;8.23;;;;;;;;;;5047361;28;20040;-68
2023/07/23 03:58:57;;;;;;;19.52;11.75;;;;;;;;;;5063167;28;20044;-67
2023/07/23 04:01:23;;;;;;;15.90;9.52;;;;;;;;;;5062990;28;20257;-67
2023/07/23 04:03:50;;;;;;;16.30;7.53;;;;;;;;;;5065960;28;20119;-67
2023/07/23 04:06:16;;;;;;;15.85;10.38;;;;;;;;;;5062437;28;20882;-66
2023/07/23 04:08:43;;;;;;;19.80;11.00;;;;;;;;;;5060674;28;20071;-68
2023/07/23 04:11:10;;;;;;;20.67;11.57;;;;;;;;;;5049431;28;20039;-69
2023/07/23 04:13:36;;;;;;;18.98;9.85;;;;;;;;;;5066550;28;20032;-66
2023/07/23 04:16:08;;;;;;;10.73;5.93;;;;;;;;;;5066216;28;20367;-67
2023/07/23 04:18:46;;;;;;;11.85;5.85;;;;;;;;;;5049022;28;20116;-67
2023/07/23 04:21:13;;;;;;;12.70;5.85;;;;;;;;;;5067669;28;20031;-67
2023/07/23 04:23:40;;;;;;;9.95;5.82;;;;;;;;;;5064445;28;20101;-67
2023/07/23 04:26:06;;;;;;;15.07;6.55;;;;;;;;;;5069692;28;20044;-69
2023/07/23 04:28:33;;;;;;;17.20;7.45;;;;;;;;;;5066882;28;20029;-66
2023/07/23 04:30:59;;;;;;;15.07;8.07;;;;;;;;;;5068508;28;20054;-65
2023/07/23 04:33:26;;;;;;;17.98;8.52;;;;;;;;;;5054383;28;20048;-67
2023/07/23 04:35:54;;;;;;;18.02;9.95;;;;;;;;;;5069850;28;20043;-64
2023/07/23 04:38:21;;;;;;;22.27;9.70;;;;;;;;;;5038749;28;20083;-65
2023/07/23 04:40:48;;;;;;;18.52;10.77;;;;;;;;;;5064881;28;20048;-65
2023/07/23 04:43:14;;;;;;;20.95;10.98;;;;;;;;;;5040057;28;20067;-63
2023/07/23 04:45:42;;;;;;;18.58;10.55;;;;;;;;;;5062562;28;20044;-63
2023/07/23 04:48:11;;;;;;;24.20;12.45;;;;;;;;;;5064788;28;20044;-63
2023/07/23 04:50:37;;;;;;;22.73;11.70;;;;;;;;;;5065230;28;20036;-61
2023/07/23 04:53:04;;;;;;;20.77;11.52;;;;;;;;;;5048132;28;20032;-63
2023/07/23 04:55:30;;;;;;;25.08;13.95;;;;;;;;;;5054761;28;20048;-62
2023/07/23 04:57:57;;;;;;;22.15;12.65;;;;;;;;;;5063678;28;20068;-62
2023/07/23 05:00:24;;;;;;;25.33;14.50;;;;;;;;;;5063999;28;20250;-64
2023/07/23 05:02:50;;;;;;;23.15;14.07;;;;;;;;;;5062712;28;20056;-64
2023/07/23 05:05:17;;;;;;;26.30;14.73;;;;;;;;;;5064373;28;20378;-63
2023/07/23 05:07:43;;;;;;;24.98;14.20;;;;;;;;;;5035738;28;20393;-64
2023/07/23 05:10:10;;;;;;;26.00;14.30;;;;;;;;;;5062575;28;20044;-64
2023/07/23 05:12:38;;;;;;;25.70;14.40;;;;;;;;;;5036937;28;20091;-63
2023/07/23 05:15:15;;;;;;;24.73;14.68;;;;;;;;;;5068466;28;20047;-66
2023/07/23 05:17:42;;;;;;;24.00;14.27;;;;;;;;;;5066099;28;20041;-63
2023/07/23 05:20:09;;;;;;;25.58;14.77;;;;;;;;;;5062187;28;20048;-64
2023/07/23 05:22:39;;;;;;;24.00;14.18;;;;;;;;;;5063605;28;20032;-62
2023/07/23 05:25:07;;;;;;;23.98;14.77;;;;;;;;;;5047672;28;20042;-63
2023/07/23 05:27:34;;;;;;;26.00;14.63;;;;;;;;;;5034148;28;20036;-64
2023/07/23 05:30:01;;;;;;;29.48;15.73;;;;;;;;;;5059823;28;20031;-62
2023/07/23 05:32:28;;;;;;;24.35;15.57;;;;;;;;;;5045776;28;20060;-59
2023/07/23 05:34:55;;;;;;;27.83;15.63;;;;;;;;;;5065725;28;20040;-60
2023/07/23 05:37:21;;;;;;;25.95;15.85;;;;;;;;;;5038613;28;20033;-62
2023/07/23 05:39:48;;;;;;;22.52;14.25;;;;;;;;;;5046825;28;20090;-61
2023/07/23 05:42:15;;;;;;;28.08;15.82;;;;;;;;;;5063310;28;20097;-62
2023/07/23 05:44:41;;;;;;;28.33;16.17;;;;;;;;;;5061180;28;20045;-62
2023/07/23 05:47:08;;;;;;;27.20;16.45;;;;;;;;;;5061466;28;20062;-61
2023/07/23 05:49:35;;;;;;;26.00;15.07;;;;;;;;;;5059620;28;20190;-62
2023/07/23 05:52:02;;;;;;;25.80;15.18;;;;;;;;;;5058530;28;20032;-63
2023/07/23 05:54:29;;;;;;;28.60;16.38;;;;;;;;;;5061737;28;20047;-66
2023/07/23 05:56:55;;;;;;;26.85;16.42;;;;;;;;;;5059920;28;20035;-64
2023/07/23 05:59:22;;;;;;;26.27;15.40;;;;;;;;;;5058229;28;20040;-62
2023/07/23 06:01:49;;;;;;;32.05;16.88;;;;;;;;;;5045562;28;20041;-63
2023/07/23 06:04:16;;;;;;;29.98;16.52;;;;;;;;;;5062393;28;20405;-61
2023/07/23 06:06:43;;;;;;;29.60;16.77;;;;;;;;;;5060598;28;20047;-61
2023/07/23 06:09:09;;;;;;;32.55;17.25;;;;;;;;;;5060230;28;20044;-63
2023/07/23 06:11:36;;;;;;;30.70;18.42;;;;;;;;;;5061367;28;20047;-63
2023/07/23 06:14:03;;;;;;;29.10;17.67;;;;;;;;;;5063865;28;20094;-61
2023/07/23 06:16:32;;;;;;;31.67;18.20;;;;;;;;;;5032969;28;20040;-62
2023/07/23 06:18:59;;;;;;;29.65;17.08;;;;;;;;;;5061252;28;20444;-62
2023/07/23 06:21:26;;;;;;;32.00;17.63;;;;;;;;;;5063789;28;20051;-62
2023/07/23 06:23:53;;;;;;;31.88;18.80;;;;;;;;;;5045011;28;20051;-61
2023/07/23 06:26:19;;;;;;;30.95;17.85;;;;;;;;;;5062772;28;20062;-61
2023/07/23 06:28:46;;;;;;;31.02;17.50;;;;;;;;;;5062034;28;20047;-60
2023/07/23 06:31:12;;;;;;;32.13;18.33;;;;;;;;;;5058399;28;20041;-63
2023/07/23 06:33:39;;;;;;;30.88;18.05;;;;;;;;;;5056870;28;20052;-61
2023/07/23 06:36:06;;;;;;;33.60;19.35;;;;;;;;;;5062039;28;20037;-64
2023/07/23 06:38:32;;;;;;;33.80;19.33;;;;;;;;;;5057785;28;20499;-61
2023/07/23 06:40:59;;;;;;;33.80;18.90;;;;;;;;;;5061590;28;20135;-62
2023/07/23 06:43:27;;;;;;;34.38;18.23;;;;;;;;;;5046255;28;20031;-65
2023/07/23 06:45:53;;;;;;;34.00;19.13;;;;;;;;;;5065404;28;20036;-62
2023/07/23 06:48:21;;;;;;;33.83;19.95;;;;;;;;;;5065132;28;20039;-61
2023/07/23 06:50:48;;;;;;;37.22;20.80;;;;;;;;;;5065058;28;20564;-62
2023/07/23 06:53:15;;;;;;;31.65;18.60;;;;;;;;;;5063728;28;21640;-63
2023/07/23 06:56:00;;;;;;;32.25;18.48;;;;;;;;;;5046504;28;20086;-62
2023/07/23 06:58:27;;;;;;;33.55;20.08;;;;;;;;;;5064056;28;20044;-63
2023/07/23 07:00:54;;;;;;;32.65;18.73;;;;;;;;;;5064058;28;20516;-63
2023/07/23 07:03:21;;;;;;;40.83;20.30;;;;;;;;;;5063297;28;20075;-62
2023/07/23 07:05:47;;;;;;;37.47;21.02;;;;;;;;;;5062943;28;20041;-64
2023/07/23 07:08:14;;;;;;;35.03;21.10;;;;;;;;;;5037972;28;20033;-63
2023/07/23 07:10:41;;;;;;;33.55;19.67;;;;;;;;;;5064863;28;20043;-62
2023/07/23 07:13:07;;;;;;;34.92;21.08;;;;;;;;;;5062405;28;20104;-63
2023/07/23 07:15:34;;;;;;;33.83;20.35;;;;;;;;;;5064989;28;20047;-64
2023/07/23 07:18:01;;;;;;;36.65;19.80;;;;;;;;;;5065474;28;22226;-62
2023/07/23 07:20:27;;;;;;;38.83;20.15;;;;;;;;;;5049949;28;20517;-62
2023/07/23 07:22:54;;;;;;;37.33;20.23;;;;;;;;;;5066678;28;20051;-63
2023/07/23 07:25:20;;;;;;;41.20;21.27;;;;;;;;;;5071163;28;20036;-62
2023/07/23 07:27:47;;;;;;;35.85;20.00;;;;;;;;;;5066560;28;20040;-62
2023/07/23 07:30:13;;;;;;;35.97;21.08;;;;;;;;;;5065111;28;20043;-62
2023/07/23 07:32:40;;;;;;;37.28;20.60;;;;;;;;;;5062877;28;20036;-63
2023/07/23 07:35:07;;;;;;;37.10;20.10;;;;;;;;;;5067702;28;20501;-63
2023/07/23 07:37:33;;;;;;;35.60;20.08;;;;;;;;;;5064780;28;20158;-62
2023/07/23 07:40:00;;;;;;;37.30;21.83;;;;;;;;;;5065204;28;20035;-62
2023/07/23 07:42:27;;;;;;;41.45;22.17;;;;;;;;;;5062983;28;20047;-62
2023/07/23 07:44:53;;;;;;;37.35;20.70;;;;;;;;;;5066435;28;20927;-64
2023/07/23 07:47:20;;;;;;;34.60;20.83;;;;;;;;;;5065991;28;20066;-63
2023/07/23 07:49:46;;;;;;;38.30;21.40;;;;;;;;;;5067403;28;20041;-62
2023/07/23 07:52:13;;;;;;;33.13;20.52;;;;;;;;;;5063047;28;20119;-61
2023/07/23 07:54:40;;;;;;;37.25;20.35;;;;;;;;;;5062986;28;20045;-62
2023/07/23 07:57:07;;;;;;;37.42;20.80;;;;;;;;;;5062946;28;20160;-62
2023/07/23 07:59:34;;;;;;;33.25;20.77;;;;;;;;;;5062229;28;20040;-62
2023/07/23 08:02:01;;;;;;;32.20;19.80;;;;;;;;;;5060939;28;20044;-62
2023/07/23 08:04:28;;;;;;;32.85;20.23;;;;;;;;;;5063379;28;20120;-60
2023/07/23 08:06:55;;;;;;;38.00;20.13;;;;;;;;;;5063235;28;20511;-62
2023/07/23 08:09:24;;;;;;;34.95;20.20;;;;;;;;;;5062042;28;20170;-62
2023/07/23 08:11:51;;;;;;;36.70;20.23;;;;;;;;;;5062050;28;20817;-62
2023/07/23 08:14:20;;;;;;;32.38;19.75;;;;;;;;;;5062634;28;20189;-61
2023/07/23 08:16:49;;;;;;;36.50;20.92;;;;;;;;;;5063684;28;20114;-61
2023/07/23 08:19:16;;;;;;;36.35;21.00;;;;;;;;;;5061683;28;20043;-61
2023/07/23 08:21:43;;;;;;;36.42;20.10;;;;;;;;;;5061961;28;20727;-62
2023/07/23 08:24:10;;;;;;;38.08;20.80;;;;;;;;;;5062457;28;20052;-63
2023/07/23 08:26:39;;;;;;;38.17;20.08;;;;;;;;;;5063944;28;20035;-61
2023/07/23 08:29:08;;;;;;;33.65;19.67;;;;;;;;;;5065191;28;20420;-62
2023/07/23 08:31:35;;;;;;;35.25;19.98;;;;;;;;;;5062894;28;20043;-61
2023/07/23 08:34:05;;;;;;;34.70;20.05;;;;;;;;;;5062785;28;20123;-62
2023/07/23 08:36:32;;;;;;;38.85;19.60;;;;;;;;;;5060952;28;20089;-62
2023/07/23 08:38:58;;;;;;;35.85;20.08;;;;;;;;;;5063248;28;20536;-63
2023/07/23 08:41:28;;;;;;;32.00;19.17;;;;;;;;;;5059808;28;20724;-62
2023/07/23 08:44:10;;;;;;;33.17;20.38;;;;;;;;;;5063537;28;20047;-60
2023/07/23 08:46:46;;;;;;;35.13;20.88;;;;;;;;;;5061776;28;20045;-62
2023/07/23 08:49:16;;;;;;;34.05;21.08;;;;;;;;;;5062932;28;20132;-61
2023/07/23 08:51:47;;;;;;;35.85;19.85;;;;;;;;;;5063168;28;20044;-63
2023/07/23 08:54:15;;;;;;;34.90;20.35;;;;;;;;;;5061411;28;20194;-63
2023/07/23 08:56:43;;;;;;;32.88;20.30;;;;;;;;;;5061659;28;20047;-63
2023/07/23 08:59:09;;;;;;;36.78;21.65;;;;;;;;;;5061838;28;20088;-63
2023/07/23 09:01:38;;;;;;;35.13;20.88;;;;;;;;;;5061241;28;20062;-63
2023/07/23 09:04:08;;;;;;;38.05;22.13;;;;;;;;;;5062346;28;20129;-62
2023/07/23 09:06:37;;;;;;;;;;;;;;;;;;5060494;28;20076;-61
2023/07/23 09:09:07;;;;;;;36.40;20.98;;;;;;;;;;5063711;28;20019;-62
2023/07/23 09:11:35;;;;;;;36.60;21.70;;;;;;;;;;5063241;28;20040;-61
2023/07/23 09:14:02;;;;;;;34.35;20.08;;;;;;;;;;5064492;28;20140;-62
2023/07/23 09:16:29;;;;;;;35.13;21.25;;;;;;;;;;5061985;28;20032;-62
2023/07/23 09:18:56;;;;;;;35.65;20.15;;;;;;;;;;5063361;28;20079;-63
2023/07/23 09:21:26;;;;;;;35.05;19.98;;;;;;;;;;5063722;28;20043;-63
2023/07/23 09:24:06;;;;;;;34.35;20.38;;;;;;;;;;5065513;28;20155;-60
2023/07/23 09:26:33;;;;;;;33.22;20.05;;;;;;;;;;5062375;28;20028;-60
2023/07/23 09:29:00;;;;;;;34.63;20.98;;;;;;;;;;5038646;28;20427;-62
2023/07/23 09:31:29;;;;;;;37.53;20.83;;;;;;;;;;5032668;28;20036;-64
2023/07/23 09:33:57;;;;;;;34.50;20.13;;;;;;;;;;5059148;28;20048;-63
2023/07/23 09:36:27;;;;;;;31.17;19.10;;;;;;;;;;5059048;28;20041;-63
2023/07/23 09:38:58;;;;;;;35.20;20.38;;;;;;;;;;5059739;28;20044;-63
2023/07/23 09:41:44;;;;;;;34.15;19.33;;;;;;;;;;5058692;28;20039;-63
2023/07/23 09:44:13;;;;;;;34.40;19.23;;;;;;;;;;5062936;28;20040;-63
2023/07/23 09:46:44;;;;;;;34.00;19.42;;;;;;;;;;5064007;28;20031;-63
2023/07/23 09:49:11;;;;;;;31.63;18.73;;;;;;;;;;5063263;28;20047;-63
2023/07/23 09:51:38;;;;;;;33.75;20.23;;;;;;;;;;5060576;28;20148;-63
2023/07/23 09:54:06;;;;;;;30.90;17.83;;;;;;;;;;5060085;28;20045;-64
2023/07/23 09:56:34;;;;;;;33.97;19.58;;;;;;;;;;5059345;28;21239;-62
2023/07/23 09:59:01;;;;;;;34.38;20.58;;;;;;;;;;5058204;28;20053;-64
2023/07/23 10:01:28;;;;;;;36.00;21.35;;;;;;;;;;5058150;28;20032;-64
2023/07/23 10:03:55;;;;;;;35.20;20.40;;;;;;;;;;5036789;28;20059;-62
2023/07/23 10:06:23;;;;;;;35.03;19.30;;;;;;;;;;5046988;28;20037;-64
2023/07/23 10:08:50;;;;;;;32.92;18.95;;;;;;;;;;5040680;28;20036;-64
2023/07/23 10:11:19;;;;;;;32.00;18.48;;;;;;;;;;5060338;28;20041;-62
2023/07/23 10:13:51;;;;;;;31.17;18.00;;;;;;;;;;5060759;28;20068;-63
2023/07/23 10:16:36;;;;;;;34.47;20.95;;;;;;;;;;5060363;28;20040;-63
2023/07/23 10:19:04;;;;;;;34.40;20.52;;;;;;;;;;5063041;28;20043;-63
2023/07/23 10:21:32;;;;;;;36.75;19.98;;;;;;;;;;5059955;28;20040;-61
2023/07/23 10:23:59;;;;;;;40.72;20.73;;;;;;;;;;5043852;28;20063;-62
2023/07/23 10:26:27;;;;;;;35.40;20.17;;;;;;;;;;5064541;28;20036;-62
2023/07/23 10:29:14;;;;;;;37.08;20.38;;;;;;;;;;5037206;28;20360;-61
2023/07/23 10:31:42;;;;;;;33.53;19.77;;;;;;;;;;5063155;28;21871;-63
2023/07/23 10:34:26;;;;;;;34.55;20.63;;;;;;;;;;5061955;28;20036;-63
2023/07/23 10:37:14;;;;;;;35.53;20.05;;;;;;;;;;5060531;28;20036;-63
2023/07/23 10:39:45;;;;;;;35.13;20.30;;;;;;;;;;5043774;28;20048;-63
2023/07/23 10:42:33;;;;;;;35.38;21.60;;;;;;;;;;5063430;28;20408;-63
2023/07/23 10:45:29;;;;;;;36.25;20.73;;;;;;;;;;5064988;28;20036;-62
2023/07/23 10:48:00;;;;;;;38.00;21.92;;;;;;;;;;5048936;28;20033;-62
2023/07/23 10:50:32;;;;;;;38.65;21.60;;;;;;;;;;5062153;28;20711;-63
2023/07/23 10:53:05;;;;;;;40.90;22.83;;;;;;;;;;5036625;28;20051;-63
2023/07/23 10:55:31;;;;;;;;;;;;;;;;;;5058206;28;20128;-61
2023/07/23 10:57:57;;;;;;;34.08;19.95;;;;;;;;;;5062262;28;19995;-62
2023/07/23 11:00:24;;;;;;;35.05;22.10;;;;;;;;;;5044749;28;20040;-59
2023/07/23 11:02:53;;;;;;;37.67;23.02;;;;;;;;;;5062737;28;20116;-63
2023/07/23 11:05:23;;;;;;;36.83;21.42;;;;;;;;;;5062656;28;20048;-63
2023/07/23 11:08:16;;;;;;;40.20;22.20;;;;;;;;;;5032142;28;20037;-62
2023/07/23 11:10:49;;;;;;;41.45;22.70;;;;;;;;;;5031551;28;20052;-62
2023/07/23 11:13:16;;;;;;;35.67;20.90;;;;;;;;;;5032000;28;20040;-65
2023/07/23 11:15:45;;;;;;;38.47;21.52;;;;;;;;;;5030497;28;20096;-61
2023/07/23 11:18:12;;;;;;;39.47;22.17;;;;;;;;;;5031092;28;20080;-63
2023/07/23 11:20:38;;;;;;;37.72;22.08;;;;;;;;;;5031036;28;20072;-64
2023/07/23 11:23:06;;;;;;;36.05;21.58;;;;;;;;;;5029872;28;20136;-63
2023/07/23 11:25:33;;;;;;;40.47;22.23;;;;;;;;;;5031912;28;20052;-64
2023/07/23 11:28:00;;;;;;;36.67;21.75;;;;;;;;;;5034697;28;20037;-62
2023/07/23 11:30:26;;;;;;;35.17;22.17;;;;;;;;;;5034620;28;20049;-64
2023/07/23 11:32:53;;;;;;;39.55;22.90;;;;;;;;;;5035029;28;20101;-65
2023/07/23 11:35:21;;;;;;;40.45;23.50;;;;;;;;;;5024062;28;20134;-64
2023/07/23 11:37:49;;;;;;;41.40;23.83;;;;;;;;;;5031854;28;20093;-64
2023/07/23 11:40:22;;;;;;;42.88;22.70;;;;;;;;;;5033343;28;20059;-66
2023/07/23 11:42:48;;;;;;;39.28;21.42;;;;;;;;;;5034029;28;20066;-66
2023/07/23 11:45:15;;;;;;;41.28;23.42;;;;;;;;;;5044257;28;20036;-64
2023/07/23 11:47:52;;;;;;;44.00;23.58;;;;;;;;;;5061706;28;21762;-65
2023/07/23 11:50:19;;;;;;;38.58;22.45;;;;;;;;;;5063240;28;20135;-64
2023/07/23 11:52:49;;;;;;;39.00;22.83;;;;;;;;;;5037900;28;20063;-66
2023/07/23 11:55:42;;;;;;;42.83;23.63;;;;;;;;;;5062191;28;20494;-66
2023/07/23 11:58:09;;;;;;;40.63;22.50;;;;;;;;;;5056275;28;20043;-63
2023/07/23 12:00:46;;;;;;;45.03;24.73;;;;;;;;;;5062923;28;20045;-66
2023/07/23 12:03:12;;;;;;;38.67;22.85;;;;;;;;;;5063156;28;20088;-65
2023/07/23 12:05:39;;;;;;;46.35;24.08;;;;;;;;;;5063241;28;20587;-65
2023/07/23 12:08:06;;;;;;;40.20;22.77;;;;;;;;;;5061823;28;20782;-67
2023/07/23 12:10:33;;;;;;;47.67;23.80;;;;;;;;;;5061008;28;20068;-64
2023/07/23 12:13:09;;;;;;;44.58;23.55;;;;;;;;;;5063478;28;20140;-63
2023/07/23 12:15:37;;;;;;;43.47;23.80;;;;;;;;;;5059226;28;20047;-64
2023/07/23 12:18:04;;;;;;;41.67;22.58;;;;;;;;;;5060808;28;20112;-65
2023/07/23 12:20:31;;;;;;;37.55;22.10;;;;;;;;;;5060661;28;20047;-66
2023/07/23 12:22:58;;;;;;;39.70;23.02;;;;;;;;;;5060356;28;20036;-64
2023/07/23 12:25:25;;;;;;;44.63;23.83;;;;;;;;;;5060287;28;20063;-64
2023/07/23 12:27:52;;;;;;;43.22;23.13;;;;;;;;;;5061862;28;20428;-65
2023/07/23 12:30:18;;;;;;;36.90;22.00;;;;;;;;;;5034169;28;20037;-63
2023/07/23 12:32:46;;;;;;;40.80;22.80;;;;;;;;;;5044260;28;20045;-64
2023/07/23 12:35:13;;;;;;;39.90;21.30;;;;;;;;;;5064840;28;20040;-66
2023/07/23 12:37:39;;;;;;;39.28;22.85;;;;;;;;;;5058916;28;20082;-64
2023/07/23 12:40:08;;;;;;;38.80;22.55;;;;;;;;;;5060028;28;20131;-65
2023/07/23 12:42:35;;;;;;;42.65;23.25;;;;;;;;;;5060606;28;20043;-65
2023/07/23 12:45:03;;;;;;;41.60;22.15;;;;;;;;;;5062159;28;20041;-64
2023/07/23 12:47:30;;;;;;;41.30;22.08;;;;;;;;;;5060814;28;20894;-65
2023/07/23 12:49:59;;;;;;;40.92;22.10;;;;;;;;;;5062874;28;20413;-64
2023/07/23 12:52:26;;;;;;;41.30;22.13;;;;;;;;;;5033699;28;20189;-64
2023/07/23 12:54:53;;;;;;;40.05;22.38;;;;;;;;;;5061389;28;20035;-65
2023/07/23 12:57:23;;;;;;;38.67;23.73;;;;;;;;;;5059600;28;20156;-66
2023/07/23 12:59:50;;;;;;;37.13;21.17;;;;;;;;;;5061132;28;20570;-67
2023/07/23 13:02:17;;;;;;;36.92;20.33;;;;;;;;;;5062753;28;20562;-65
2023/07/23 13:04:44;;;;;;;37.05;21.60;;;;;;;;;;5061403;28;20075;-64
2023/07/23 13:07:11;;;;;;;38.25;21.50;;;;;;;;;;5059199;28;20115;-65
2023/07/23 13:09:38;;;;;;;36.03;20.17;;;;;;;;;;5058707;28;20038;-64
2023/07/23 13:12:05;;;;;;;31.42;19.60;;;;;;;;;;5060099;28;20067;-63
2023/07/23 13:14:32;;;;;;;33.35;20.77;;;;;;;;;;5061021;28;20094;-64
2023/07/23 13:16:58;;;;;;;34.08;19.40;;;;;;;;;;5060903;28;20958;-64
2023/07/23 13:19:25;;;;;;;31.63;20.05;;;;;;;;;;5058343;28;20037;-63
2023/07/23 13:21:52;;;;;;;34.97;20.25;;;;;;;;;;5060941;28;20048;-65
2023/07/23 13:24:18;;;;;;;31.23;19.20;;;;;;;;;;5058413;28;20024;-64
2023/07/23 13:26:45;;;;;;;32.40;18.83;;;;;;;;;;5061167;28;20105;-68
2023/07/23 13:29:11;;;;;;;29.90;19.25;;;;;;;;;;5045841;28;20151;-63
2023/07/23 13:31:38;;;;;;;29.17;16.98;;;;;;;;;;5061318;28;20082;-65
2023/07/23 13:34:05;;;;;;;32.67;17.88;;;;;;;;;;5045586;28;20040;-63
2023/07/23 13:36:31;;;;;;;29.85;18.13;;;;;;;;;;5061609;28;20041;-64
2023/07/23 13:38:58;;;;;;;27.25;18.17;;;;;;;;;;5032926;28;20039;-65
2023/07/23 13:41:25;;;;;;;27.77;17.50;;;;;;;;;;5059916;28;20395;-64
2023/07/23 13:43:51;;;;;;;23.63;16.35;;;;;;;;;;5058941;28;20040;-64
2023/07/23 13:46:18;;;;;;;26.02;15.52;;;;;;;;;;5060244;28;20055;-65
2023/07/23 13:48:44;;;;;;;25.63;15.65;;;;;;;;;;5058007;28;20040;-64
2023/07/23 13:51:11;;;;;;;23.52;11.55;;;;;;;;;;5033951;28;20048;-64
2023/07/23 13:53:38;;;;;;;20.05;12.60;;;;;;;;;;5059237;28;20620;-65
2023/07/23 13:56:04;;;;;;;20.42;11.73;;;;;;;;;;5060654;28;20043;-65
2023/07/23 13:58:33;;;;;;;20.10;12.43;;;;;;;;;;5058382;28;20036;-65
2023/07/23 14:01:00;;;;;;;15.65;9.00;;;;;;;;;;5060937;28;20044;-65
2023/07/23 14:03:27;;;;;;;18.90;12.23;;;;;;;;;;5059448;28;20554;-66
2023/07/23 14:05:53;;;;;;;20.67;13.75;;;;;;;;;;5061005;28;20040;-64
2023/07/23 14:08:20;;;;;;;23.63;14.82;;;;;;;;;;5060591;28;20036;-64
2023/07/23 14:10:48;;;;;;;28.23;15.13;;;;;;;;;;5060851;28;20474;-63
2023/07/23 14:13:14;;;;;;;25.70;14.45;;;;;;;;;;5064025;28;20043;-62
2023/07/23 14:15:41;;;;;;;26.08;15.43;;;;;;;;;;5047109;28;20083;-61
2023/07/23 14:18:08;;;;;;;33.05;16.67;;;;;;;;;;5062060;28;20127;-59
2023/07/23 14:20:34;;;;;;;26.80;16.90;;;;;;;;;;5061923;28;20041;-59
2023/07/23 14:23:01;;;;;;;25.80;16.05;;;;;;;;;;5063482;28;20116;-59
2023/07/23 14:25:28;;;;;;;30.42;16.35;;;;;;;;;;5062903;28;20048;-63
2023/07/23 14:27:54;;;;;;;31.80;17.67;;;;;;;;;;5063928;28;20036;-60